sensor_id;sensor_type;location;lat;lon;timestamp;pressure;altitude;pressure_sealevel;temperature;humidity
57763;BME280;43592;42.524;12.052;2023-05-14T00:01:53;96401.88;;;10.79;100.00
57763;BME280;43592;42.524;12.052;2023-05-14T00:04:18;96402.22;;;10.78;100.00
57763;BME280;43592;42.524;12.052;2023-05-14T00:06:44;96407.56;;;10.78;100.00
57763;BME280;43592;42.524;12.052;2023-05-14T00:09:10;96410.25;;;10.78;100.00
57763;BME280;43592;42.524;12.052;2023-05-14T00:11:35;96396.78;;;10.74;100.00
57763;BME280;43592;42.524;12.052;2023-05-14T00:14:01;96398.34;;;10.75;100.00
57763;BME280;43592;42.524;12.052;2023-05-14T00:16:26;96401.38;;;10.74;100.00
57763;BME280;43592;42.524;12.052;2023-05-14T00:18:52;96388.31;;;10.72;100.00
57763;BME280;43592;42.524;12.052;2023-05-14T00:21:17;96392.91;;;10.72;100.00
57763;BME280;43592;42.524;12.052;2023-05-14T00:23:43;96387.91;;;10.70;100.00
57763;BME280;43592;42.524;12.052;2023-05-14T00:26:08;96394.72;;;10.68;100.00
57763;BME280;43592;42.524;12.052;2023-05-14T00:28:33;96387.03;;;10.66;100.00
57763;BME280;43592;42.524;12.052;2023-05-14T00:30:59;96385.50;;;10.65;100.00
57763;BME280;43592;42.524;12.052;2023-05-14T00:33:24;96381.59;;;10.63;100.00
57763;BME280;43592;42.524;12.052;2023-05-14T00:35:50;96386.19;;;10.62;100.00
57763;BME280;43592;42.524;12.052;2023-05-14T00:38:15;96378.91;;;10.63;100.00
57763;BME280;43592;42.524;12.052;2023-05-14T00:40:43;96376.69;;;10.65;100.00
57763;BME280;43592;42.524;12.052;2023-05-14T00:43:14;96372.19;;;10.69;100.00
57763;BME280;43592;42.524;12.052;2023-05-14T00:45:40;96366.13;;;10.72;100.00
57763;BME280;43592;42.524;12.052;2023-05-14T00:48:05;96370.03;;;10.74;100.00
57763;BME280;43592;42.524;12.052;2023-05-14T00:50:31;96362.06;;;10.78;100.00
57763;BME280;43592;42.524;12.052;2023-05-14T00:52:57;96369.78;;;10.79;100.00
57763;BME280;43592;42.524;12.052;2023-05-14T00:55:22;96370.97;;;10.82;100.00
57763;BME280;43592;42.524;12.052;2023-05-14T00:57:48;96368.75;;;10.84;100.00
57763;BME280;43592;42.524;12.052;2023-05-14T01:00:14;96359.56;;;10.85;100.00
57763;BME280;43592;42.524;12.052;2023-05-14T01:02:40;96348.88;;;10.85;100.00
57763;BME280;43592;42.524;12.052;2023-05-14T01:05:06;96357.34;;;10.87;100.00
57763;BME280;43592;42.524;12.052;2023-05-14T01:07:36;96348.19;;;10.88;100.00
57763;BME280;43592;42.524;12.052;2023-05-14T01:10:09;96345.50;;;10.88;100.00
57763;BME280;43592;42.524;12.052;2023-05-14T01:12:46;96346.69;;;10.91;100.00
57763;BME280;43592;42.524;12.052;2023-05-14T01:15:21;96346.69;;;10.91;100.00
57763;BME280;43592;42.524;12.052;2023-05-14T01:17:52;96344.81;;;10.91;100.00
57763;BME280;43592;42.524;12.052;2023-05-14T01:20:19;96345.56;;;10.92;100.00
57763;BME280;43592;42.524;12.052;2023-05-14T01:22:45;96338.31;;;10.92;100.00
57763;BME280;43592;42.524;12.052;2023-05-14T01:25:11;96331.84;;;10.93;100.00
57763;BME280;43592;42.524;12.052;2023-05-14T01:32:36;96321.84;;;10.90;100.00
57763;BME280;43592;42.524;12.052;2023-05-14T01:35:03;96314.50;;;10.87;100.00
57763;BME280;43592;42.524;12.052;2023-05-14T01:37:31;96314.00;;;10.82;100.00
57763;BME280;43592;42.524;12.052;2023-05-14T01:39:57;96314.25;;;10.76;100.00
57763;BME280;43592;42.524;12.052;2023-05-14T01:42:23;96316.06;;;10.72;100.00
57763;BME280;43592;42.524;12.052;2023-05-14T01:44:50;96306.81;;;10.70;100.00
57763;BME280;43592;42.524;12.052;2023-05-14T01:47:15;96306.81;;;10.70;100.00
57763;BME280;43592;42.524;12.052;2023-05-14T01:49:41;96311.06;;;10.71;100.00
57763;BME280;43592;42.524;12.052;2023-05-14T01:52:07;96308.72;;;10.69;100.00
57763;BME280;43592;42.524;12.052;2023-05-14T01:54:33;96304.84;;;10.67;100.00
57763;BME280;43592;42.524;12.052;2023-05-14T01:56:58;96307.44;;;10.63;100.00
57763;BME280;43592;42.524;12.052;2023-05-14T01:59:24;96323.41;;;10.60;100.00
57763;BME280;43592;42.524;12.052;2023-05-14T02:01:49;96305.38;;;10.56;100.00
57763;BME280;43592;42.524;12.052;2023-05-14T02:04:15;96304.94;;;10.54;100.00
57763;BME280;43592;42.524;12.052;2023-05-14T02:06:40;96306.41;;;10.52;100.00
57763;BME280;43592;42.524;12.052;2023-05-14T02:09:06;96305.19;;;10.49;100.00
57763;BME280;43592;42.524;12.052;2023-05-14T02:11:31;96302.88;;;10.48;100.00
57763;BME280;43592;42.524;12.052;2023-05-14T02:13:57;96305.91;;;10.46;100.00
57763;BME280;43592;42.524;12.052;2023-05-14T02:16:22;96302.00;;;10.44;100.00
57763;BME280;43592;42.524;12.052;2023-05-14T02:18:47;96309.28;;;10.43;100.00
57763;BME280;43592;42.524;12.052;2023-05-14T02:21:13;96309.63;;;10.42;100.00
57763;BME280;43592;42.524;12.052;2023-05-14T02:23:38;96303.91;;;10.43;100.00
57763;BME280;43592;42.524;12.052;2023-05-14T02:26:04;96307.38;;;10.44;100.00
57763;BME280;43592;42.524;12.052;2023-05-14T02:28:29;96303.91;;;10.43;100.00
57763;BME280;43592;42.524;12.052;2023-05-14T02:30:58;96304.69;;;10.44;100.00
57763;BME280;43592;42.524;12.052;2023-05-14T02:33:24;96302.00;;;10.44;100.00
57763;BME280;43592;42.524;12.052;2023-05-14T02:35:50;96301.25;;;10.43;100.00
57763;BME280;43592;42.524;12.052;2023-05-14T02:38:15;96291.31;;;10.44;100.00
57763;BME280;43592;42.524;12.052;2023-05-14T02:40:41;96290.97;;;10.45;100.00
57763;BME280;43592;42.524;12.052;2023-05-14T02:43:06;96287.16;;;10.46;100.00
57763;BME280;43592;42.524;12.052;2023-05-14T02:45:32;96285.28;;;10.47;100.00
57763;BME280;43592;42.524;12.052;2023-05-14T02:47:57;96286.06;;;10.47;100.00
57763;BME280;43592;42.524;12.052;2023-05-14T02:50:22;96281.50;;;10.48;100.00
57763;BME280;43592;42.524;12.052;2023-05-14T02:52:48;96276.91;;;10.48;100.00
57763;BME280;43592;42.524;12.052;2023-05-14T02:55:13;96281.13;;;10.49;100.00
57763;BME280;43592;42.524;12.052;2023-05-14T02:57:39;96281.13;;;10.49;100.00
57763;BME280;43592;42.524;12.052;2023-05-14T03:00:05;96281.91;;;10.50;100.00
57763;BME280;43592;42.524;12.052;2023-05-14T03:02:30;96279.59;;;10.48;100.00
57763;BME280;43592;42.524;12.052;2023-05-14T03:04:56;96280.34;;;10.49;100.00
57763;BME280;43592;42.524;12.052;2023-05-14T03:07:21;96279.59;;;10.48;100.00
57763;BME280;43592;42.524;12.052;2023-05-14T03:09:47;96284.94;;;10.48;100.00
57763;BME280;43592;42.524;12.052;2023-05-14T03:12:12;96283.81;;;10.49;100.00
57763;BME280;43592;42.524;12.052;2023-05-14T03:14:38;96273.88;;;10.50;100.00
57763;BME280;43592;42.524;12.052;2023-05-14T03:17:04;96267.41;;;10.51;100.00
57763;BME280;43592;42.524;12.052;2023-05-14T03:19:29;96267.06;;;10.52;100.00
57763;BME280;43592;42.524;12.052;2023-05-14T03:21:55;96273.97;;;10.53;100.00
57763;BME280;43592;42.524;12.052;2023-05-14T03:24:20;96258.69;;;10.54;100.00
57763;BME280;43592;42.524;12.052;2023-05-14T03:26:45;96260.22;;;10.55;100.00
57763;BME280;43592;42.524;12.052;2023-05-14T03:29:11;96255.66;;;10.55;100.00
57763;BME280;43592;42.524;12.052;2023-05-14T03:31:36;96242.28;;;10.55;100.00
57763;BME280;43592;42.524;12.052;2023-05-14T03:34:02;96234.69;;;10.57;100.00
57763;BME280;43592;42.524;12.052;2023-05-14T03:36:27;96249.19;;;10.56;100.00
57763;BME280;43592;42.524;12.052;2023-05-14T03:38:53;96257.22;;;10.56;100.00
57763;BME280;43592;42.524;12.052;2023-05-14T03:41:18;96254.19;;;10.58;100.00
57763;BME280;43592;42.524;12.052;2023-05-14T03:43:46;96251.88;;;10.56;100.00
57763;BME280;43592;42.524;12.052;2023-05-14T03:46:11;96252.66;;;10.57;100.00
57763;BME280;43592;42.524;12.052;2023-05-14T03:48:37;96250.75;;;10.57;100.00
57763;BME280;43592;42.524;12.052;2023-05-14T03:51:02;96256.88;;;10.58;100.00
57763;BME280;43592;42.524;12.052;2023-05-14T03:53:28;96242.38;;;10.59;100.00
57763;BME280;43592;42.524;12.052;2023-05-14T03:55:53;96252.72;;;10.61;100.00
57763;BME280;43592;42.524;12.052;2023-05-14T03:58:19;96246.25;;;10.62;100.00
57763;BME280;43592;42.524;12.052;2023-05-14T04:00:44;96238.22;;;10.62;100.00
57763;BME280;43592;42.524;12.052;2023-05-14T04:03:10;96241.31;;;10.64;100.00
57763;BME280;43592;42.524;12.052;2023-05-14T04:05:36;96250.13;;;10.64;100.00
57763;BME280;43592;42.524;12.052;2023-05-14T04:08:01;96253.59;;;10.65;100.00
57763;BME280;43592;42.524;12.052;2023-05-14T04:10:27;96246.34;;;10.65;100.00
57763;BME280;43592;42.524;12.052;2023-05-14T04:12:52;96237.94;;;10.67;100.00
57763;BME280;43592;42.524;12.052;2023-05-14T04:15:19;96246.41;;;10.69;100.00
57763;BME280;43592;42.524;12.052;2023-05-14T04:17:45;96254.44;;;10.69;100.00
57763;BME280;43592;42.524;12.052;2023-05-14T04:20:10;96265.13;;;10.69;100.00
57763;BME280;43592;42.524;12.052;2023-05-14T04:22:36;96255.19;;;10.69;100.00
57763;BME280;43592;42.524;12.052;2023-05-14T04:25:01;96238.38;;;10.69;100.00
57763;BME280;43592;42.524;12.052;2023-05-14T04:27:27;96237.59;;;10.68;100.00
57763;BME280;43592;42.524;12.052;2023-05-14T04:29:52;96243.72;;;10.69;100.00
57763;BME280;43592;42.524;12.052;2023-05-14T04:32:18;96251.41;;;10.70;100.00
57763;BME280;43592;42.524;12.052;2023-05-14T04:34:43;96245.28;;;10.70;100.00
57763;BME280;43592;42.524;12.052;2023-05-14T04:37:10;96239.91;;;10.70;100.00
57763;BME280;43592;42.524;12.052;2023-05-14T04:39:36;96249.16;;;10.72;100.00
57763;BME280;43592;42.524;12.052;2023-05-14T04:42:02;96251.50;;;10.74;100.00
57763;BME280;43592;42.524;12.052;2023-05-14T04:44:27;96254.59;;;10.76;100.00
57763;BME280;43592;42.524;12.052;2023-05-14T04:46:53;96253.13;;;10.78;100.00
57763;BME280;43592;42.524;12.052;2023-05-14T04:49:18;96258.13;;;10.80;100.00
57763;BME280;43592;42.524;12.052;2023-05-14T04:51:45;96253.19;;;10.82;100.00
57763;BME280;43592;42.524;12.052;2023-05-14T04:54:10;96265.13;;;10.85;100.00
57763;BME280;43592;42.524;12.052;2023-05-14T04:56:36;96286.16;;;10.86;100.00
57763;BME280;43592;42.524;12.052;2023-05-14T04:59:01;96291.19;;;10.88;100.00
57763;BME280;43592;42.524;12.052;2023-05-14T05:01:27;96272.84;;;10.90;100.00
57763;BME280;43592;42.524;12.052;2023-05-14T05:03:52;96273.72;;;10.94;100.00
57763;BME280;43592;42.524;12.052;2023-05-14T05:06:18;96277.59;;;10.96;100.00
57763;BME280;43592;42.524;12.052;2023-05-14T05:08:43;96281.13;;;11.00;100.00
57763;BME280;43592;42.524;12.052;2023-05-14T05:11:09;96280.84;;;11.06;100.00
57763;BME280;43592;42.524;12.052;2023-05-14T05:13:34;96291.63;;;11.09;100.00
57763;BME280;43592;42.524;12.052;2023-05-14T05:15:59;96289.44;;;11.15;100.00
57763;BME280;43592;42.524;12.052;2023-05-14T05:18:25;96289.19;;;11.20;100.00
57763;BME280;43592;42.524;12.052;2023-05-14T05:20:51;96294.59;;;11.23;100.00
57763;BME280;43592;42.524;12.052;2023-05-14T05:23:16;96294.41;;;11.32;100.00
57763;BME280;43592;42.524;12.052;2023-05-14T05:25:42;96289.25;;;11.43;100.00
57763;BME280;43592;42.524;12.052;2023-05-14T05:28:07;96300.19;;;11.54;100.00
57763;BME280;43592;42.524;12.052;2023-05-14T05:30:33;96299.66;;;11.64;100.00
57763;BME280;43592;42.524;12.052;2023-05-14T05:32:58;96301.66;;;11.71;100.00
57763;BME280;43592;42.524;12.052;2023-05-14T05:35:24;96299.91;;;11.78;100.00
57763;BME280;43592;42.524;12.052;2023-05-14T05:37:49;96288.91;;;11.83;100.00
57763;BME280;43592;42.524;12.052;2023-05-14T05:40:15;96288.72;;;11.92;100.00
57763;BME280;43592;42.524;12.052;2023-05-14T05:42:41;96294.19;;;11.99;100.00
57763;BME280;43592;42.524;12.052;2023-05-14T05:45:06;96294.00;;;12.11;100.00
57763;BME280;43592;42.524;12.052;2023-05-14T05:47:32;96296.97;;;12.26;100.00
57763;BME280;43592;42.524;12.052;2023-05-14T05:49:58;96293.72;;;12.40;100.00
57763;BME280;43592;42.524;12.052;2023-05-14T05:52:23;96305.03;;;12.52;100.00
57763;BME280;43592;42.524;12.052;2023-05-14T05:54:49;96297.88;;;12.60;100.00
57763;BME280;43592;42.524;12.052;2023-05-14T05:57:14;96296.44;;;12.66;100.00
57763;BME280;43592;42.524;12.052;2023-05-14T05:59:40;96297.97;;;12.67;100.00
57763;BME280;43592;42.524;12.052;2023-05-14T06:02:05;96295.72;;;12.69;100.00
57763;BME280;43592;42.524;12.052;2023-05-14T06:04:31;96299.56;;;12.68;100.00
57763;BME280;43592;42.524;12.052;2023-05-14T06:06:56;96293.00;;;12.66;100.00
57763;BME280;43592;42.524;12.052;2023-05-14T06:09:22;96292.19;;;12.65;100.00
57763;BME280;43592;42.524;12.052;2023-05-14T06:11:47;96294.94;;;12.69;100.00
57763;BME280;43592;42.524;12.052;2023-05-14T06:14:12;96301.19;;;12.76;100.00
57763;BME280;43592;42.524;12.052;2023-05-14T06:16:38;96305.59;;;12.88;100.00
57763;BME280;43592;42.524;12.052;2023-05-14T06:19:03;96302.31;;;13.02;100.00
57763;BME280;43592;42.524;12.052;2023-05-14T06:21:29;96296.06;;;13.21;100.00
57763;BME280;43592;42.524;12.052;2023-05-14T06:23:54;96296.00;;;13.44;100.00
57763;BME280;43592;42.524;12.052;2023-05-14T06:26:20;96302.38;;;13.62;100.00
57763;BME280;43592;42.524;12.052;2023-05-14T06:28:46;96303.31;;;13.81;100.00
57763;BME280;43592;42.524;12.052;2023-05-14T06:31:11;96311.19;;;13.97;100.00
57763;BME280;43592;42.524;12.052;2023-05-14T06:33:37;96305.88;;;14.04;100.00
57763;BME280;43592;42.524;12.052;2023-05-14T06:36:03;96304.78;;;14.08;100.00
57763;BME280;43592;42.524;12.052;2023-05-14T06:38:29;96300.94;;;14.09;100.00
57763;BME280;43592;42.524;12.052;2023-05-14T06:40:55;96300.53;;;14.07;100.00
57763;BME280;43592;42.524;12.052;2023-05-14T06:43:21;96296.28;;;14.06;100.00
57763;BME280;43592;42.524;12.052;2023-05-14T06:45:49;96302.06;;;14.05;100.00
57763;BME280;43592;42.524;12.052;2023-05-14T06:48:16;96291.66;;;14.03;100.00
57763;BME280;43592;42.524;12.052;2023-05-14T06:50:46;96292.03;;;14.02;100.00
57763;BME280;43592;42.524;12.052;2023-05-14T06:53:12;96295.50;;;14.02;100.00
57763;BME280;43592;42.524;12.052;2023-05-14T06:55:38;96292.06;;;14.05;100.00
57763;BME280;43592;42.524;12.052;2023-05-14T06:58:06;96299.38;;;14.05;100.00
57763;BME280;43592;42.524;12.052;2023-05-14T07:00:32;96297.41;;;14.02;100.00
57763;BME280;43592;42.524;12.052;2023-05-14T07:02:57;96297.41;;;14.02;100.00
57763;BME280;43592;42.524;12.052;2023-05-14T07:05:23;96300.19;;;14.12;100.00
57763;BME280;43592;42.524;12.052;2023-05-14T07:07:49;96293.16;;;14.42;100.00
57763;BME280;43592;42.524;12.052;2023-05-14T07:10:14;96284.22;;;14.75;100.00
57763;BME280;43592;42.524;12.052;2023-05-14T07:12:39;96283.66;;;15.10;100.00
57763;BME280;43592;42.524;12.052;2023-05-14T07:15:05;96283.78;;;15.39;100.00
57763;BME280;43592;42.524;12.052;2023-05-14T07:17:31;96283.50;;;15.58;100.00
57763;BME280;43592;42.524;12.052;2023-05-14T07:19:57;96269.31;;;15.72;100.00
57763;BME280;43592;42.524;12.052;2023-05-14T07:22:22;96274.00;;;15.97;100.00
57763;BME280;43592;42.524;12.052;2023-05-14T07:24:48;96268.63;;;16.36;100.00
57763;BME280;43592;42.524;12.052;2023-05-14T07:27:14;96263.63;;;16.77;100.00
57763;BME280;43592;42.524;12.052;2023-05-14T07:29:41;96252.97;;;17.55;100.00
57763;BME280;43592;42.524;12.052;2023-05-14T07:32:06;96246.75;;;18.28;100.00
57763;BME280;43592;42.524;12.052;2023-05-14T07:34:31;96245.28;;;18.65;100.00
57763;BME280;43592;42.524;12.052;2023-05-14T07:36:57;96246.13;;;18.99;100.00
57763;BME280;43592;42.524;12.052;2023-05-14T07:39:22;96242.72;;;18.95;100.00
57763;BME280;43592;42.524;12.052;2023-05-14T07:41:48;96246.38;;;18.78;100.00
57763;BME280;43592;42.524;12.052;2023-05-14T07:44:14;96253.84;;;18.59;100.00
57763;BME280;43592;42.524;12.052;2023-05-14T07:46:41;96268.44;;;18.28;100.00
57763;BME280;43592;42.524;12.052;2023-05-14T07:49:06;96249.66;;;17.99;100.00
57763;BME280;43592;42.524;12.052;2023-05-14T07:51:32;96257.13;;;17.81;100.00
57763;BME280;43592;42.524;12.052;2023-05-14T07:53:57;96254.41;;;17.84;100.00
57763;BME280;43592;42.524;12.052;2023-05-14T07:56:23;96251.34;;;17.79;100.00
57763;BME280;43592;42.524;12.052;2023-05-14T07:58:50;96253.28;;;17.71;100.00
57763;BME280;43592;42.524;12.052;2023-05-14T08:01:18;96254.13;;;17.61;100.00
57763;BME280;43592;42.524;12.052;2023-05-14T08:03:44;96254.97;;;17.40;100.00
57763;BME280;43592;42.524;12.052;2023-05-14T08:06:10;96255.81;;;17.15;100.00
57763;BME280;43592;42.524;12.052;2023-05-14T08:08:36;96254.72;;;16.84;100.00
57763;BME280;43592;42.524;12.052;2023-05-14T08:11:02;96249.75;;;16.50;100.00
57763;BME280;43592;42.524;12.052;2023-05-14T08:13:27;96255.53;;;16.31;100.00
57763;BME280;43592;42.524;12.052;2023-05-14T08:15:53;96263.22;;;16.11;100.00
57763;BME280;43592;42.524;12.052;2023-05-14T08:18:19;96274.00;;;15.97;100.00
57763;BME280;43592;42.524;12.052;2023-05-14T08:20:45;96274.75;;;15.83;100.00
57763;BME280;43592;42.524;12.052;2023-05-14T08:23:11;96282.72;;;15.65;100.00
57763;BME280;43592;42.524;12.052;2023-05-14T08:25:36;96279.97;;;15.43;100.00
57763;BME280;43592;42.524;12.052;2023-05-14T08:28:02;96278.69;;;15.19;100.00
57763;BME280;43592;42.524;12.052;2023-05-14T08:30:27;96279.38;;;15.05;100.00
57763;BME280;43592;42.524;12.052;2023-05-14T08:32:53;96287.81;;;14.97;100.00
57763;BME280;43592;42.524;12.052;2023-05-14T08:35:18;96284.75;;;14.98;100.00
57763;BME280;43592;42.524;12.052;2023-05-14T08:37:44;96281.31;;;15.09;100.00
57763;BME280;43592;42.524;12.052;2023-05-14T08:40:10;96274.47;;;15.18;100.00
57763;BME280;43592;42.524;12.052;2023-05-14T08:42:36;96279.50;;;15.23;100.00
57763;BME280;43592;42.524;12.052;2023-05-14T08:45:05;96290.72;;;15.40;100.00
57763;BME280;43592;42.524;12.052;2023-05-14T08:47:33;96287.34;;;15.64;100.00
57763;BME280;43592;42.524;12.052;2023-05-14T08:50:03;96285.97;;;16.03;100.00
57763;BME280;43592;42.524;12.052;2023-05-14T08:52:29;96283.28;;;16.24;100.00
57763;BME280;43592;42.524;12.052;2023-05-14T08:54:55;96289.84;;;16.41;100.00
57763;BME280;43592;42.524;12.052;2023-05-14T08:57:21;96297.59;;;16.53;100.00
57763;BME280;43592;42.524;12.052;2023-05-14T08:59:49;96289.47;;;16.78;100.00
57763;BME280;43592;42.524;12.052;2023-05-14T09:02:15;96277.47;;;17.08;100.00
57763;BME280;43592;42.524;12.052;2023-05-14T09:04:41;96267.75;;;17.36;100.00
57763;BME280;43592;42.524;12.052;2023-05-14T09:07:07;96263.03;;;17.50;100.00
57763;BME280;43592;42.524;12.052;2023-05-14T09:09:33;96271.47;;;17.70;100.00
57763;BME280;43592;42.524;12.052;2023-05-14T09:11:59;96277.91;;;17.98;100.00
57763;BME280;43592;42.524;12.052;2023-05-14T09:14:25;96271.81;;;18.39;100.00
57763;BME280;43592;42.524;12.052;2023-05-14T09:16:51;96267.09;;;18.50;99.18
57763;BME280;43592;42.524;12.052;2023-05-14T09:19:17;96274.66;;;18.77;100.00
57763;BME280;43592;42.524;12.052;2023-05-14T09:21:46;96278.53;;;18.76;100.00
57763;BME280;43592;42.524;12.052;2023-05-14T09:24:22;96274.63;;;18.73;100.00
57763;BME280;43592;42.524;12.052;2023-05-14T09:26:49;96279.56;;;18.40;100.00
57763;BME280;43592;42.524;12.052;2023-05-14T09:29:15;96273.63;;;18.04;100.00
57763;BME280;43592;42.524;12.052;2023-05-14T09:31:41;96267.28;;;17.51;100.00
57763;BME280;43592;42.524;12.052;2023-05-14T09:34:07;96267.47;;;16.91;100.00
57763;BME280;43592;42.524;12.052;2023-05-14T09:36:35;96275.97;;;16.28;100.00
57763;BME280;43592;42.524;12.052;2023-05-14T09:39:03;96273.97;;;15.93;100.00
57763;BME280;43592;42.524;12.052;2023-05-14T09:41:29;96282.09;;;16.00;100.00
57763;BME280;43592;42.524;12.052;2023-05-14T09:43:54;96285.19;;;16.06;100.00
57763;BME280;43592;42.524;12.052;2023-05-14T09:46:21;96274.41;;;16.24;100.00
57763;BME280;43592;42.524;12.052;2023-05-14T09:48:48;96286.00;;;16.28;100.00
57763;BME280;43592;42.524;12.052;2023-05-14T09:51:13;96282.91;;;16.29;100.00
57763;BME280;43592;42.524;12.052;2023-05-14T09:53:40;96297.19;;;16.41;100.00
57763;BME280;43592;42.524;12.052;2023-05-14T09:56:07;96280.59;;;16.46;100.00
57763;BME280;43592;42.524;12.052;2023-05-14T09:58:32;96291.78;;;16.41;100.00
57763;BME280;43592;42.524;12.052;2023-05-14T10:00:58;96301.06;;;16.39;100.00
57763;BME280;43592;42.524;12.052;2023-05-14T10:03:26;96299.13;;;16.44;100.00
57763;BME280;43592;42.524;12.052;2023-05-14T10:05:53;96292.56;;;16.41;100.00
57763;BME280;43592;42.524;12.052;2023-05-14T10:08:21;96300.66;;;16.34;100.00
57763;BME280;43592;42.524;12.052;2023-05-14T10:10:49;96310.31;;;16.42;100.00
57763;BME280;43592;42.524;12.052;2023-05-14T10:13:17;96313.75;;;16.35;100.00
57763;BME280;43592;42.524;12.052;2023-05-14T10:15:48;96312.25;;;16.49;100.00
57763;BME280;43592;42.524;12.052;2023-05-14T10:18:16;96310.69;;;16.73;100.00
57763;BME280;43592;42.524;12.052;2023-05-14T10:20:43;96311.84;;;17.04;100.00
57763;BME280;43592;42.524;12.052;2023-05-14T10:23:12;96301.00;;;17.15;100.00
57763;BME280;43592;42.524;12.052;2023-05-14T10:25:38;96288.25;;;17.15;100.00
57763;BME280;43592;42.524;12.052;2023-05-14T10:28:03;96306.75;;;17.35;100.00
57763;BME280;43592;42.524;12.052;2023-05-14T10:30:30;96304.88;;;17.24;100.00
57763;BME280;43592;42.524;12.052;2023-05-14T10:33:10;96299.84;;;17.19;100.00
57763;BME280;43592;42.524;12.052;2023-05-14T10:38:21;96308.72;;;17.31;97.42
57763;BME280;43592;42.524;12.052;2023-05-14T10:40:47;96304.03;;;17.35;100.00
57763;BME280;43592;42.524;12.052;2023-05-14T10:43:13;96302.84;;;17.46;100.00
57763;BME280;43592;42.524;12.052;2023-05-14T10:45:42;96299.53;;;18.02;100.00
57763;BME280;43592;42.524;12.052;2023-05-14T10:48:07;96306.13;;;18.56;91.62
57763;BME280;43592;42.524;12.052;2023-05-14T10:50:33;96320.38;;;18.68;94.40
57763;BME280;43592;42.524;12.052;2023-05-14T10:52:58;96312.00;;;19.00;90.59
57763;BME280;43592;42.524;12.052;2023-05-14T10:55:24;96292.81;;;18.80;87.84
57763;BME280;43592;42.524;12.052;2023-05-14T10:57:50;96293.28;;;19.13;88.44
57763;BME280;43592;42.524;12.052;2023-05-14T11:00:16;96282.03;;;19.14;95.26
57763;BME280;43592;42.524;12.052;2023-05-14T11:02:42;96280.31;;;19.27;100.00
57763;BME280;43592;42.524;12.052;2023-05-14T11:05:09;96278.25;;;20.04;100.00
57763;BME280;43592;42.524;12.052;2023-05-14T11:07:42;96279.13;;;20.24;79.67
57763;BME280;43592;42.524;12.052;2023-05-14T11:10:09;96269.38;;;20.54;80.36
57763;BME280;43592;42.524;12.052;2023-05-14T11:12:36;96262.69;;;20.82;74.90
57763;BME280;43592;42.524;12.052;2023-05-14T11:15:03;96266.72;;;20.74;78.63
57763;BME280;43592;42.524;12.052;2023-05-14T11:17:30;96267.47;;;20.51;82.24
57763;BME280;43592;42.524;12.052;2023-05-14T11:19:57;96261.53;;;20.32;96.48
57763;BME280;43592;42.524;12.052;2023-05-14T11:22:23;96260.28;;;20.13;96.94
57763;BME280;43592;42.524;12.052;2023-05-14T11:24:49;96261.91;;;20.07;86.20
57763;BME280;43592;42.524;12.052;2023-05-14T11:27:15;96245.25;;;19.78;77.72
57763;BME280;43592;42.524;12.052;2023-05-14T11:29:47;96257.25;;;19.46;80.04
57763;BME280;43592;42.524;12.052;2023-05-14T11:32:13;96256.34;;;19.26;85.32
57763;BME280;43592;42.524;12.052;2023-05-14T11:34:40;96269.75;;;19.02;84.11
57763;BME280;43592;42.524;12.052;2023-05-14T11:37:06;96260.94;;;18.46;83.14
57763;BME280;43592;42.524;12.052;2023-05-14T11:39:33;96263.88;;;18.17;89.16
57763;BME280;43592;42.524;12.052;2023-05-14T11:42:10;96260.69;;;17.60;86.54
57763;BME280;43592;42.524;12.052;2023-05-14T11:44:41;96258.03;;;17.53;95.93
57763;BME280;43592;42.524;12.052;2023-05-14T11:47:09;96254.94;;;17.47;92.05
57763;BME280;43592;42.524;12.052;2023-05-14T11:49:35;96236.66;;;17.69;91.96
57763;BME280;43592;42.524;12.052;2023-05-14T11:52:03;96238.16;;;17.84;86.99
57763;BME280;43592;42.524;12.052;2023-05-14T11:54:30;96237.84;;;18.31;95.60
57763;BME280;43592;42.524;12.052;2023-05-14T11:56:56;96235.91;;;18.80;100.00
57763;BME280;43592;42.524;12.052;2023-05-14T11:59:23;96230.59;;;18.62;83.90
57763;BME280;43592;42.524;12.052;2023-05-14T12:01:49;96236.34;;;18.71;99.91
57763;BME280;43592;42.524;12.052;2023-05-14T12:04:16;96246.75;;;18.76;89.12
57763;BME280;43592;42.524;12.052;2023-05-14T12:06:43;96234.13;;;19.00;92.47
57763;BME280;43592;42.524;12.052;2023-05-14T12:09:11;96248.06;;;19.02;89.56
57763;BME280;43592;42.524;12.052;2023-05-14T12:11:36;96258.22;;;19.29;84.73
57763;BME280;43592;42.524;12.052;2023-05-14T12:14:09;96245.72;;;19.39;88.23
57763;BME280;43592;42.524;12.052;2023-05-14T12:16:34;96230.78;;;19.23;88.30
57763;BME280;43592;42.524;12.052;2023-05-14T12:19:00;96244.47;;;18.75;88.24
57763;BME280;43592;42.524;12.052;2023-05-14T12:21:26;96244.16;;;18.62;100.00
57763;BME280;43592;42.524;12.052;2023-05-14T12:23:57;96241.78;;;18.71;90.56
57763;BME280;43592;42.524;12.052;2023-05-14T12:26:24;96239.34;;;18.84;91.38
57763;BME280;43592;42.524;12.052;2023-05-14T12:29:01;96244.84;;;19.15;88.84
57763;BME280;43592;42.524;12.052;2023-05-14T12:31:34;96235.06;;;18.87;84.24
57763;BME280;43592;42.524;12.052;2023-05-14T12:34:02;96229.84;;;19.03;91.33
57763;BME280;43592;42.524;12.052;2023-05-14T12:36:28;96224.91;;;18.94;93.89
57763;BME280;43592;42.524;12.052;2023-05-14T12:39:01;96223.66;;;18.61;92.69
57763;BME280;43592;42.524;12.052;2023-05-14T12:41:31;96226.53;;;18.39;88.79
57763;BME280;43592;42.524;12.052;2023-05-14T12:43:57;96220.03;;;18.78;93.49